Etusivu
METAR-TAF:

METAR-TAF

Lentoasemat :

Berlin, New Hampshire, Yhdysvallat

Leveyspiiri: 44-34-34N, Pituuspiiri: 071-10-43W, korkeus merenpinnasta: 353 m

Tämänhetkinen sää

Tämä raportti tehtiin 17 minuuttia sitten, kello 04.35 UTC
tyyntä
Lämpötila -1°C
Kosteus 86%
Ilmanpaine 1012 hPa
Näkyvyys: 16.1 km
Hajanaisia pilviä 700 ft:n korkeudessa
Pilvistä 10000 ft:n korkeudessa

METAR: KBML 220435Z AUTO 00000KT 10SM SCT007 OVC100 M01/M03 A2989 RMK AO2 T10111033

Aika: 23:52 (04:52 UTC)


TAF: puuttuu

Säähavainnot ja -ennusteet yli 4000 lentoasemalta (METAR- ja TAF-raportit).

Käytössä olevat sääasemat on merkitty karttaan keltaisilla ja punaisilla pisteillä.

Aseta hiiri pisteen päälle nähdäksesi sääaseman nimen.

Klikkaa sitten nähdäksesi säähavainnot ja -ennusteet.

Kartan vaihtaminen: klikkaa mustalla rastilla varustettuja vihreitä pisteitä, niin voit zoomata sisään; viivalla varustettua vihreää pistettä, niin voit zoomata ulos tai vihreitä nuolia, niin pääset viereisille kartoille.


METAR-TAF: